createdAt,value
2023-04-03T00:01:12.038Z,4.40
2023-04-03T00:03:39.245Z,4.50
2023-04-03T00:06:11.388Z,4.50
2023-04-03T00:08:39.061Z,4.50
2023-04-03T00:11:06.191Z,4.60
2023-04-03T00:13:34.590Z,4.60
2023-04-03T00:16:01.994Z,4.50
2023-04-03T00:18:28.789Z,4.40
2023-04-03T00:20:55.814Z,4.50
2023-04-03T00:23:24.607Z,4.50
2023-04-03T00:25:52.823Z,4.50
2023-04-03T00:28:19.925Z,4.40
2023-04-03T00:30:46.715Z,4.50
2023-04-03T00:33:14.521Z,4.40
2023-04-03T00:35:41.834Z,4.40
2023-04-03T00:38:09.206Z,4.40
2023-04-03T00:40:40.532Z,4.30
2023-04-03T00:43:18.929Z,4.30
2023-04-03T00:45:49.817Z,4.30
2023-04-03T00:48:34.491Z,4.30
2023-04-03T00:51:03.884Z,4.30
2023-04-03T00:53:41.888Z,4.30
2023-04-03T00:56:14.240Z,4.30
2023-04-03T00:58:52.905Z,4.30
2023-04-03T01:01:25.880Z,4.30
2023-04-03T01:03:53.022Z,4.30
2023-04-03T01:06:27.142Z,4.30
2023-04-03T01:08:55.595Z,4.30
2023-04-03T01:11:22.709Z,4.30
2023-04-03T01:13:50.392Z,4.30
2023-04-03T01:16:17.497Z,4.30
2023-04-03T01:18:46.543Z,4.30
2023-04-03T01:21:24.889Z,4.30
2023-04-03T01:24:16.187Z,4.20
2023-04-03T01:26:43.764Z,4.30
2023-04-03T01:29:10.841Z,4.20
2023-04-03T01:31:52.675Z,4.30
2023-04-03T01:34:20.578Z,4.30
2023-04-03T01:36:47.722Z,4.20
2023-04-03T01:39:15.271Z,4.20
2023-04-03T01:41:42.118Z,4.20
2023-04-03T01:44:09.153Z,4.20
2023-04-03T01:46:36.586Z,4.20
2023-04-03T01:49:03.453Z,4.30
2023-04-03T01:51:31.044Z,4.30
2023-04-03T01:53:57.956Z,4.30
2023-04-03T01:56:24.813Z,4.30
2023-04-03T01:58:51.634Z,4.30
2023-04-03T02:01:18.598Z,4.20
2023-04-03T02:03:45.714Z,4.30
2023-04-03T02:06:12.943Z,4.30
2023-04-03T02:08:39.845Z,4.30
2023-04-03T02:11:06.942Z,4.20
2023-04-03T02:13:33.745Z,4.20
2023-04-03T02:16:00.584Z,4.10
2023-04-03T02:18:27.392Z,4.10
2023-04-03T02:20:54.211Z,4.20
2023-04-03T02:23:21.132Z,4.30
2023-04-03T02:25:50.036Z,4.20
2023-04-03T02:28:16.936Z,4.30
2023-04-03T02:30:43.798Z,4.20
2023-04-03T02:33:10.594Z,4.20
2023-04-03T02:35:37.968Z,4.20
2023-04-03T02:38:04.836Z,4.10
2023-04-03T02:40:31.618Z,4.20
2023-04-03T02:42:58.401Z,4.20
2023-04-03T02:45:25.332Z,4.30
2023-04-03T02:47:52.266Z,4.30
2023-04-03T02:50:19.164Z,4.20
2023-04-03T02:52:45.995Z,4.20
2023-04-03T02:55:16.893Z,4.20
2023-04-03T02:57:43.681Z,4.20
2023-04-03T03:00:11.169Z,4.30
2023-04-03T03:02:38.001Z,4.30
2023-04-03T03:05:05.760Z,4.30
2023-04-03T03:07:32.793Z,4.40
2023-04-03T03:09:59.556Z,4.40
2023-04-03T03:12:26.343Z,4.40
2023-04-03T03:14:53.110Z,4.40
2023-04-03T03:17:19.942Z,4.30
2023-04-03T03:19:47.075Z,4.20
2023-04-03T03:22:13.864Z,4.30
2023-04-03T03:24:40.777Z,4.20
2023-04-03T03:27:07.554Z,4.30
2023-04-03T03:29:34.470Z,4.30
2023-04-03T03:32:01.232Z,4.30
2023-04-03T03:34:27.997Z,4.40
2023-04-03T03:36:54.809Z,4.40
2023-04-03T03:39:21.978Z,4.30
2023-04-03T03:41:50.513Z,4.40
2023-04-03T03:44:17.403Z,4.40
2023-04-03T03:46:44.316Z,4.30
2023-04-03T03:49:12.357Z,4.30
2023-04-03T03:51:40.249Z,4.20
2023-04-03T03:54:07.550Z,4.20
2023-04-03T03:56:35.249Z,4.20
2023-04-03T03:59:02.065Z,4.20
2023-04-03T04:01:29.193Z,4.10
2023-04-03T04:03:56.421Z,4.10
2023-04-03T04:06:23.752Z,4.20
2023-04-03T04:08:51.021Z,4.20
2023-04-03T04:11:17.853Z,4.10
2023-04-03T04:13:44.623Z,4.20
2023-04-03T04:16:11.405Z,4.20
2023-04-03T04:18:38.212Z,4.20
2023-04-03T04:21:05.223Z,4.10
2023-04-03T04:23:32.025Z,4.10
2023-04-03T04:25:58.865Z,4.00
2023-04-03T04:28:25.751Z,4.00
2023-04-03T04:30:52.636Z,4.00
2023-04-03T04:33:19.496Z,4.00
2023-04-03T04:35:49.424Z,4.00
2023-04-03T04:38:16.489Z,4.00
2023-04-03T04:40:43.271Z,4.00
2023-04-03T04:43:11.702Z,3.90
2023-04-03T04:45:38.776Z,4.00
2023-04-03T04:48:06.201Z,4.00
2023-04-03T04:50:33.088Z,4.10
2023-04-03T04:52:59.925Z,4.00
2023-04-03T04:55:26.724Z,4.00
2023-04-03T04:57:53.798Z,4.10
2023-04-03T05:00:21.292Z,4.10
2023-04-03T05:02:48.087Z,4.10
2023-04-03T05:05:15.024Z,4.10
2023-04-03T05:07:42.084Z,4.10
2023-04-03T05:10:10.716Z,4.10
2023-04-03T05:12:37.595Z,4.10
2023-04-03T05:15:04.953Z,4.10
2023-04-03T05:17:31.759Z,4.10
2023-04-03T05:19:58.562Z,4.20
2023-04-03T05:22:25.467Z,4.10
2023-04-03T05:24:52.278Z,4.10
2023-04-03T05:27:19.105Z,4.10
2023-04-03T05:29:46.033Z,4.10
2023-04-03T05:32:12.920Z,4.10
2023-04-03T05:34:39.715Z,4.00
2023-04-03T05:37:06.555Z,4.00
2023-04-03T05:39:33.794Z,4.00
2023-04-03T05:42:01.160Z,4.00
2023-04-03T05:44:28.205Z,4.00
2023-04-03T05:46:54.943Z,4.00
2023-04-03T05:49:21.738Z,3.90
2023-04-03T05:51:48.538Z,3.90
2023-04-03T05:54:27.588Z,4.00
2023-04-03T05:56:55.180Z,3.70
2023-04-03T05:59:22.398Z,3.60
2023-04-03T06:01:49.893Z,3.60
2023-04-03T06:04:17.041Z,3.60
2023-04-03T06:06:52.537Z,3.50
2023-04-03T06:09:23.351Z,3.50
2023-04-03T06:11:50.435Z,3.50
2023-04-03T06:14:17.303Z,3.50
2023-04-03T06:16:44.628Z,3.60
2023-04-03T06:19:13.107Z,3.60
2023-04-03T06:21:40.540Z,3.60
2023-04-03T06:24:08.298Z,3.60
2023-04-03T06:26:35.529Z,3.50
2023-04-03T06:29:03.486Z,3.60
2023-04-03T06:31:30.970Z,3.70
2023-04-03T06:33:57.892Z,3.70
2023-04-03T06:36:25.164Z,3.70
2023-04-03T06:38:52.018Z,3.70
2023-04-03T06:41:19.038Z,3.70
2023-04-03T06:43:46.382Z,3.70
2023-04-03T06:46:22.890Z,3.60
2023-04-03T06:48:50.924Z,3.70
2023-04-03T06:51:28.897Z,3.60
2023-04-03T06:54:00.629Z,3.60
2023-04-03T06:56:28.857Z,3.80
2023-04-03T06:58:58.526Z,3.80
2023-04-03T07:01:30.022Z,3.80
2023-04-03T07:03:57.993Z,3.70
2023-04-03T07:06:27.787Z,3.80
2023-04-03T07:08:56.117Z,3.90
2023-04-03T07:11:23.463Z,3.80
2023-04-03T07:13:51.416Z,3.90
2023-04-03T07:16:18.446Z,4.00
2023-04-03T07:18:46.640Z,4.20
2023-04-03T07:21:14.462Z,4.40
2023-04-03T07:23:41.369Z,4.40
2023-04-03T07:26:09.106Z,4.30
2023-04-03T07:28:37.503Z,4.30
2023-04-03T07:31:09.735Z,4.30
2023-04-03T07:33:36.892Z,4.30
2023-04-03T07:36:04.763Z,4.30
2023-04-03T07:38:33.119Z,4.50
2023-04-03T07:41:00.269Z,4.60
2023-04-03T07:43:27.147Z,4.90
2023-04-03T07:45:55.282Z,4.90
2023-04-03T07:48:24.978Z,5.00
2023-04-03T07:50:53.043Z,5.10
2023-04-03T07:53:20.756Z,5.10
2023-04-03T07:55:50.001Z,5.10
2023-04-03T07:58:19.267Z,5.20
2023-04-03T08:00:47.110Z,5.20
2023-04-03T08:03:15.465Z,5.30
2023-04-03T08:05:45.326Z,5.30
2023-04-03T08:08:14.758Z,5.40
2023-04-03T08:10:41.864Z,5.50
2023-04-03T08:13:09.511Z,5.30
2023-04-03T08:15:37.799Z,5.30
2023-04-03T08:18:05.508Z,5.30
2023-04-03T08:20:32.437Z,5.10
2023-04-03T08:22:59.382Z,5.00
2023-04-03T08:25:26.274Z,4.90
2023-04-03T08:27:53.286Z,4.80
2023-04-03T08:30:20.643Z,4.70
2023-04-03T08:32:47.559Z,4.80
2023-04-03T08:35:14.549Z,4.90
2023-04-03T08:37:41.700Z,4.80
2023-04-03T08:40:14.872Z,4.70
2023-04-03T08:43:06.115Z,4.80
2023-04-03T08:45:56.963Z,5.00
2023-04-03T08:48:42.613Z,5.10
2023-04-03T08:51:18.239Z,5.30
2023-04-03T08:54:16.383Z,5.50
2023-04-03T08:56:43.332Z,5.70
2023-04-03T08:59:21.093Z,6.10
2023-04-03T09:01:48.567Z,6.30
2023-04-03T09:04:20.602Z,6.40
2023-04-03T09:06:54.865Z,6.60
2023-04-03T09:09:42.039Z,6.70
2023-04-03T09:12:30.986Z,6.50
2023-04-03T09:15:27.794Z,6.20
2023-04-03T09:18:06.831Z,6.20
2023-04-03T09:21:29.096Z,6.50
2023-04-03T09:24:01.952Z,6.60
2023-04-03T09:26:46.613Z,6.30
2023-04-03T09:29:20.164Z,6.10
2023-04-03T09:31:52.096Z,6.00
2023-04-03T09:34:25.648Z,6.20
2023-04-03T09:36:56.536Z,6.20
2023-04-03T09:39:28.144Z,6.10
2023-04-03T09:42:23.658Z,6.10
2023-04-03T09:45:06.620Z,6.20
2023-04-03T09:47:36.150Z,6.40
2023-04-03T09:50:15.294Z,6.60
2023-04-03T09:52:45.300Z,6.60
2023-04-03T09:55:27.848Z,6.40
2023-04-03T09:58:04.547Z,6.30
2023-04-03T10:00:38.574Z,6.50
2023-04-03T10:03:24.455Z,6.30
2023-04-03T10:05:54.926Z,6.60
2023-04-03T10:08:30.353Z,7.00
2023-04-03T10:11:13.853Z,6.90
2023-04-03T10:14:00.622Z,6.90
2023-04-03T10:16:38.764Z,6.80
2023-04-03T10:19:34.544Z,6.60
2023-04-03T10:22:13.430Z,6.30
2023-04-03T10:24:55.601Z,6.20
2023-04-03T10:27:50.043Z,6.30
2023-04-03T10:30:31.715Z,6.20
2023-04-03T10:33:41.078Z,6.30
2023-04-03T10:36:18.638Z,6.50
2023-04-03T10:39:22.222Z,6.90
2023-04-03T10:42:29.744Z,6.70
2023-04-03T10:45:22.561Z,6.80
2023-04-03T10:48:29.124Z,6.80
2023-04-03T10:51:13.947Z,6.50
2023-04-03T10:53:55.516Z,6.20
2023-04-03T10:56:41.004Z,6.00
2023-04-03T10:59:30.626Z,5.90
2023-04-03T11:02:38.321Z,5.60
2023-04-03T11:05:15.862Z,5.70
2023-04-03T11:07:49.202Z,5.80
2023-04-03T11:10:24.625Z,5.80
2023-04-03T11:13:08.063Z,6.00
2023-04-03T11:15:36.210Z,6.10
2023-04-03T11:18:19.290Z,6.50
2023-04-03T11:21:00.185Z,6.70
2023-04-03T11:23:35.645Z,6.80
2023-04-03T11:26:23.190Z,6.70
2023-04-03T11:29:08.344Z,6.50
2023-04-03T11:32:09.612Z,6.70
2023-04-03T11:34:51.107Z,6.80
2023-04-03T11:37:36.606Z,6.80
2023-04-03T11:40:27.699Z,6.80
2023-04-03T11:43:00.102Z,6.50
2023-04-03T11:45:47.437Z,6.50
2023-04-03T11:48:24.896Z,6.60
2023-04-03T11:50:52.950Z,6.80
2023-04-03T11:53:33.146Z,6.70
2023-04-03T11:56:02.036Z,6.80
2023-04-03T11:58:33.906Z,6.90
2023-04-03T12:01:10.774Z,7.10
2023-04-03T12:03:40.575Z,7.20
2023-04-03T12:06:07.660Z,6.90
2023-04-03T12:08:34.426Z,6.80
2023-04-03T12:11:31.659Z,6.90
2023-04-03T12:13:58.471Z,7.10
2023-04-03T12:16:40.036Z,7.40
2023-04-03T12:19:15.903Z,7.40
2023-04-03T12:21:49.004Z,7.10
2023-04-03T12:24:18.908Z,7.10
2023-04-03T12:27:01.015Z,7.00
2023-04-03T12:29:33.911Z,6.80
2023-04-03T12:32:28.004Z,7.00
2023-04-03T12:35:09.995Z,7.00
2023-04-03T12:38:26.917Z,7.00
2023-04-03T12:41:24.529Z,7.20
2023-04-03T12:44:06.301Z,7.00
2023-04-03T12:46:54.512Z,7.10
2023-04-03T12:49:30.341Z,7.50
2023-04-03T12:51:57.254Z,7.90
2023-04-03T12:54:33.216Z,8.00
2023-04-03T12:57:26.020Z,8.00
2023-04-03T12:59:53.180Z,8.00
2023-04-03T13:02:35.631Z,8.20
2023-04-03T13:05:16.795Z,8.50
2023-04-03T13:07:44.491Z,8.70
2023-04-03T13:10:16.083Z,8.70
2023-04-03T13:13:08.470Z,8.50
2023-04-03T13:15:49.875Z,8.40
2023-04-03T13:18:31.424Z,8.40
2023-04-03T13:21:06.699Z,8.30
2023-04-03T13:23:37.680Z,8.20
2023-04-03T13:26:06.578Z,7.90
2023-04-03T13:28:35.266Z,8.20
2023-04-03T13:31:19.264Z,8.20
2023-04-03T13:34:10.427Z,8.20
2023-04-03T13:36:42.100Z,8.10
2023-04-03T13:39:26.555Z,8.10
2023-04-03T13:41:57.512Z,8.30
2023-04-03T13:44:27.984Z,8.50
2023-04-03T13:47:24.493Z,8.60
2023-04-03T13:50:05.344Z,8.60
2023-04-03T13:52:41.148Z,8.50
2023-04-03T13:55:29.892Z,8.40
2023-04-03T13:58:04.413Z,8.00
2023-04-03T14:00:56.119Z,8.20
2023-04-03T14:03:40.438Z,8.20
2023-04-03T14:06:10.040Z,8.10
2023-04-03T14:08:42.925Z,8.00
2023-04-03T14:11:19.559Z,8.10
2023-04-03T14:13:48.155Z,8.00
2023-04-03T14:16:26.414Z,7.90
2023-04-03T14:18:53.929Z,7.70
2023-04-03T14:21:22.240Z,7.50
2023-04-03T14:23:50.279Z,7.50
2023-04-03T14:26:24.008Z,7.50
2023-04-03T14:28:54.420Z,7.60
2023-04-03T14:31:21.987Z,7.60
2023-04-03T14:33:49.622Z,7.70
2023-04-03T14:36:22.043Z,7.80
2023-04-03T14:38:50.688Z,7.70
2023-04-03T14:41:21.547Z,7.50
2023-04-03T14:43:49.476Z,7.40
2023-04-03T14:46:19.895Z,7.30
2023-04-03T14:48:47.020Z,7.20
2023-04-03T14:51:15.691Z,7.10
2023-04-03T14:53:45.647Z,7.00
2023-04-03T14:56:18.551Z,7.00
2023-04-03T14:58:45.884Z,7.00
2023-04-03T15:01:14.805Z,6.90
2023-04-03T15:03:41.779Z,7.10
2023-04-03T15:06:12.904Z,7.00
2023-04-03T15:08:42.002Z,6.80
2023-04-03T15:11:11.103Z,6.90
2023-04-03T15:13:39.600Z,6.70
2023-04-03T15:16:18.638Z,6.50
2023-04-03T15:18:46.939Z,6.40
2023-04-03T15:21:13.945Z,6.30
2023-04-03T15:23:40.862Z,6.20
2023-04-03T15:26:07.911Z,6.20
2023-04-03T15:28:39.468Z,6.20
2023-04-03T15:31:07.060Z,6.20
2023-04-03T15:33:35.557Z,6.00
2023-04-03T15:36:22.990Z,6.00
2023-04-03T15:39:04.481Z,6.00
2023-04-03T15:41:39.042Z,5.90
2023-04-03T15:44:06.360Z,6.00
2023-04-03T15:46:33.861Z,5.90
2023-04-03T15:49:00.738Z,6.00
2023-04-03T15:51:27.519Z,5.80
2023-04-03T15:53:54.335Z,5.80
2023-04-03T15:56:28.556Z,5.80
2023-04-03T15:59:04.477Z,5.70
2023-04-03T16:01:39.213Z,5.70
2023-04-03T16:04:09.413Z,5.70
2023-04-03T16:06:37.265Z,5.70
2023-04-03T16:09:05.240Z,5.70
2023-04-03T16:11:32.404Z,5.50
2023-04-03T16:13:59.336Z,5.50
2023-04-03T16:16:33.600Z,5.50
2023-04-03T16:19:09.899Z,5.60
2023-04-03T16:21:44.438Z,5.70
2023-04-03T16:24:11.925Z,5.50
2023-04-03T16:26:38.769Z,5.40
2023-04-03T16:29:05.664Z,5.30
2023-04-03T16:31:34.447Z,5.20
2023-04-03T16:34:02.007Z,5.20
2023-04-03T16:36:36.402Z,5.00
2023-04-03T16:39:13.358Z,5.10
2023-04-03T16:41:47.442Z,5.00
2023-04-03T16:44:14.962Z,5.00
2023-04-03T16:46:42.087Z,5.00
2023-04-03T16:49:09.117Z,4.90
2023-04-03T16:51:36.053Z,5.00
2023-04-03T16:54:02.979Z,4.90
2023-04-03T16:56:38.883Z,5.00
2023-04-03T16:59:13.844Z,5.10
2023-04-03T17:01:49.955Z,5.00
2023-04-03T17:04:17.733Z,4.80
2023-04-03T17:06:44.708Z,4.90
2023-04-03T17:09:12.650Z,4.80
2023-04-03T17:11:40.071Z,4.60
2023-04-03T17:14:07.340Z,4.60
2023-04-03T17:16:44.097Z,4.60
2023-04-03T17:19:21.179Z,4.60
2023-04-03T17:21:58.132Z,4.70
2023-04-03T17:24:25.972Z,4.70
2023-04-03T17:26:52.800Z,4.60
2023-04-03T17:29:19.713Z,4.70
2023-04-03T17:31:46.513Z,4.70
2023-04-03T17:34:13.442Z,4.60
2023-04-03T17:36:48.783Z,4.50
2023-04-03T17:39:24.756Z,4.50
2023-04-03T17:41:59.836Z,4.60
2023-04-03T17:44:27.513Z,4.60
2023-04-03T17:46:54.309Z,4.70
2023-04-03T17:49:22.353Z,4.60
2023-04-03T17:51:49.506Z,4.60
2023-04-03T17:54:16.918Z,4.60
2023-04-03T17:56:51.575Z,4.50
2023-04-03T17:59:26.984Z,4.40
2023-04-03T18:02:02.614Z,4.40
2023-04-03T18:04:31.832Z,4.40
2023-04-03T18:06:59.175Z,4.30
2023-04-03T18:09:31.036Z,4.30
2023-04-03T18:11:58.678Z,4.30
2023-04-03T18:14:28.324Z,4.30
2023-04-03T18:17:02.054Z,4.30
2023-04-03T18:19:38.782Z,4.10
2023-04-03T18:22:23.518Z,4.00
2023-04-03T18:24:53.223Z,4.10
2023-04-03T18:27:23.063Z,4.00
2023-04-03T18:29:59.352Z,4.10
2023-04-03T18:32:26.222Z,4.10
2023-04-03T18:34:53.061Z,4.00
2023-04-03T18:37:29.481Z,4.00
2023-04-03T18:40:05.469Z,4.00
2023-04-03T18:42:41.724Z,4.00
2023-04-03T18:45:12.178Z,4.00
2023-04-03T18:47:39.761Z,4.00
2023-04-03T18:50:08.343Z,3.90
2023-04-03T18:52:35.237Z,3.90
2023-04-03T18:55:02.143Z,4.00
2023-04-03T18:57:42.248Z,3.90
2023-04-03T19:00:20.235Z,4.00
2023-04-03T19:02:56.134Z,4.10
2023-04-03T19:05:24.033Z,4.00
2023-04-03T19:07:51.027Z,4.00
2023-04-03T19:10:18.271Z,4.00
2023-04-03T19:12:46.910Z,4.10
2023-04-03T19:15:17.016Z,4.00
2023-04-03T19:17:52.309Z,4.00
2023-04-03T19:20:27.479Z,4.00
2023-04-03T19:23:02.978Z,3.90
2023-04-03T19:25:30.492Z,3.90
2023-04-03T19:27:57.368Z,3.80
2023-04-03T19:30:24.750Z,3.90
2023-04-03T19:32:51.693Z,3.90
2023-04-03T19:35:22.294Z,3.90
2023-04-03T19:37:56.580Z,4.00
2023-04-03T19:40:32.563Z,4.00
2023-04-03T19:42:59.906Z,4.00
2023-04-03T19:45:27.748Z,4.00
2023-04-03T19:47:54.722Z,3.90
2023-04-03T19:50:21.537Z,4.00
2023-04-03T19:52:48.338Z,4.00
2023-04-03T19:55:16.370Z,4.00
2023-04-03T19:57:49.312Z,4.00
2023-04-03T20:00:25.134Z,3.80
2023-04-03T20:02:59.552Z,3.90
2023-04-03T20:05:26.440Z,3.90
2023-04-03T20:07:53.265Z,3.80
2023-04-03T20:10:20.234Z,3.80
2023-04-03T20:12:47.369Z,3.80
2023-04-03T20:15:14.314Z,3.80
2023-04-03T20:17:47.717Z,3.80
2023-04-03T20:20:23.612Z,3.80
2023-04-03T20:22:59.282Z,3.80
2023-04-03T20:27:56.204Z,3.50
2023-04-03T20:30:23.003Z,3.60
2023-04-03T20:32:49.871Z,3.60
2023-04-03T20:35:22.340Z,3.60
2023-04-03T20:37:56.943Z,3.60
2023-04-03T20:40:30.887Z,3.70
2023-04-03T20:43:01.155Z,3.60
2023-04-03T20:45:28.301Z,3.60
2023-04-03T20:47:55.500Z,3.60
2023-04-03T20:50:22.518Z,3.60
2023-04-03T20:52:49.723Z,3.60
2023-04-03T20:55:18.352Z,3.50
2023-04-03T20:57:54.562Z,3.40
2023-04-03T21:00:28.522Z,3.40
2023-04-03T21:02:57.855Z,3.50
2023-04-03T21:05:26.220Z,3.50
2023-04-03T21:08:49.246Z,3.50
2023-04-03T21:12:12.113Z,3.40
2023-04-03T21:15:38.879Z,3.50
2023-04-03T21:18:13.849Z,3.40
2023-04-03T21:20:51.156Z,3.40
2023-04-03T21:23:20.352Z,3.20
2023-04-03T21:25:48.815Z,3.30
2023-04-03T21:28:15.764Z,3.30
2023-04-03T21:30:42.783Z,3.30
2023-04-03T21:33:12.880Z,3.20
2023-04-03T21:35:45.050Z,3.30
2023-04-03T21:38:19.071Z,3.10
2023-04-03T21:40:53.786Z,3.10
2023-04-03T21:43:21.515Z,3.10
2023-04-03T21:45:48.635Z,3.00
2023-04-03T21:48:17.169Z,3.10
2023-04-03T21:50:44.073Z,3.00
2023-04-03T21:53:11.173Z,3.00
2023-04-03T21:55:44.129Z,2.90
2023-04-03T21:58:17.105Z,3.00
2023-04-03T22:00:52.079Z,3.00
2023-04-03T22:03:21.134Z,3.00
2023-04-03T22:05:48.151Z,3.00
2023-04-03T22:08:15.531Z,3.00
2023-04-03T22:10:42.512Z,3.00
2023-04-03T22:13:09.395Z,3.00
2023-04-03T22:15:50.489Z,2.80
2023-04-03T22:18:23.686Z,2.80
2023-04-03T22:21:00.761Z,2.80
2023-04-03T22:23:28.082Z,2.90
2023-04-03T22:26:10.127Z,2.90
2023-04-03T22:28:45.714Z,2.90
2023-04-03T22:31:14.230Z,2.80
2023-04-03T22:33:44.033Z,2.80
2023-04-03T22:36:18.617Z,2.80
2023-04-03T22:38:52.534Z,2.80
2023-04-03T22:41:19.686Z,2.80
2023-04-03T22:43:46.851Z,2.70
2023-04-03T22:46:13.749Z,2.70
2023-04-03T22:48:45.275Z,2.70
2023-04-03T22:51:12.351Z,2.60
2023-04-03T22:53:39.223Z,2.60
2023-04-03T22:56:13.439Z,2.60
2023-04-03T22:58:48.279Z,2.60
2023-04-03T23:01:23.015Z,2.60
2023-04-03T23:03:51.187Z,2.50
2023-04-03T23:06:18.007Z,2.50
2023-04-03T23:08:44.812Z,2.50
2023-04-03T23:11:11.675Z,2.50
2023-04-03T23:13:38.478Z,2.50
2023-04-03T23:16:11.856Z,2.50
2023-04-03T23:18:47.351Z,2.40
2023-04-03T23:21:21.219Z,2.40
2023-04-03T23:23:48.674Z,2.30
2023-04-03T23:26:15.503Z,2.30
2023-04-03T23:28:42.274Z,2.30
2023-04-03T23:31:10.327Z,2.30
2023-04-03T23:33:38.491Z,2.20
2023-04-03T23:36:16.674Z,2.10
2023-04-03T23:38:50.062Z,2.20
2023-04-03T23:41:25.029Z,2.20
2023-04-03T23:43:52.534Z,2.10
2023-04-03T23:46:20.020Z,2.10
2023-04-03T23:48:46.848Z,2.10
2023-04-03T23:51:13.653Z,2.10
2023-04-03T23:53:40.482Z,2.00
2023-04-03T23:56:11.685Z,2.00
2023-04-03T23:58:39.212Z,2.00
